Terminal Aerodrome Forecast
Issued by NWS

Home | Current Version | Previous Version | Text Only | Print | Product List | Glossary On
Versions: 1 2 3 4 5 6 7 8 9 10 11 12 13 14 15
383
FTUS44 KLZK 032339
TAFPBF
TAF
KPBF 032339Z 0400/0424 33003KT P6SM SKC
     FM041500 26010KT P6SM SCT050
     FM042200 29012G20KT P6SM SCT050=

USA.gov is the U.S. government's official web portal to all federal, state and local government web resources and services.